createdAt,value
2019-06-10T00:02:28.199Z,63.80
2019-06-10T00:04:57.599Z,63.90
2019-06-10T00:07:26.122Z,64.00
2019-06-10T00:09:54.554Z,64.30
2019-06-10T00:12:22.974Z,64.40
2019-06-10T00:14:51.401Z,64.70
2019-06-10T00:17:21.352Z,65.40
2019-06-10T00:19:51.154Z,64.70
2019-06-10T00:22:21.569Z,64.80
2019-06-10T00:24:52.197Z,64.60
2019-06-10T00:27:21.609Z,64.60
2019-06-10T00:29:51.259Z,64.60
2019-06-10T00:32:21.495Z,64.70
2019-06-10T00:34:50.840Z,64.60
2019-06-10T00:37:21.190Z,64.70
2019-06-10T00:39:51.189Z,64.80
2019-06-10T00:42:21.423Z,64.80
2019-06-10T00:44:50.904Z,64.90
2019-06-10T00:47:21.166Z,64.90
2019-06-10T00:49:51.456Z,65.00
2019-06-10T00:52:21.351Z,65.00
2019-06-10T00:54:51.943Z,65.20
2019-06-10T00:57:20.936Z,65.40
2019-06-10T00:59:50.789Z,65.40
2019-06-10T01:02:21.344Z,65.40
2019-06-10T01:04:51.359Z,65.50
2019-06-10T01:07:21.878Z,65.50
2019-06-10T01:09:51.720Z,65.60
2019-06-10T01:12:21.110Z,65.50
2019-06-10T01:14:51.690Z,65.50
2019-06-10T01:17:21.349Z,65.60
2019-06-10T01:19:50.897Z,65.70
2019-06-10T01:22:21.320Z,66.10
2019-06-10T01:24:51.029Z,66.50
2019-06-10T01:27:21.205Z,67.30
2019-06-10T01:29:51.074Z,66.60
2019-06-10T01:32:21.721Z,66.30
2019-06-10T01:34:50.821Z,66.30
2019-06-10T01:37:21.873Z,66.30
2019-06-10T01:39:51.501Z,66.30
2019-06-10T01:42:21.603Z,66.60
2019-06-10T01:44:50.699Z,67.90
2019-06-10T01:47:21.427Z,66.90
2019-06-10T01:49:51.544Z,66.40
2019-06-10T01:52:21.195Z,66.30
2019-06-10T01:54:51.511Z,66.20
2019-06-10T01:57:22.023Z,66.40
2019-06-10T01:59:50.865Z,66.40
2019-06-10T02:02:23.673Z,66.20
2019-06-10T02:04:51.692Z,66.00
2019-06-10T02:07:22.922Z,66.10
2019-06-10T02:09:51.754Z,66.40
2019-06-10T02:12:24.019Z,66.30
2019-06-10T02:14:50.955Z,66.70
2019-06-10T02:17:23.587Z,67.50
2019-06-10T02:19:50.895Z,67.30
2019-06-10T02:22:23.849Z,67.80
2019-06-10T02:24:50.655Z,67.30
2019-06-10T02:27:21.486Z,67.50
2019-06-10T02:29:50.714Z,67.10
2019-06-10T02:32:28.638Z,68.00
2019-06-10T02:35:03.531Z,67.70
2019-06-10T02:37:24.133Z,68.20
2019-06-10T02:39:49.681Z,68.20
2019-06-10T02:42:30.717Z,68.70
2019-06-10T02:44:55.949Z,69.90
2019-06-10T02:47:31.784Z,70.50
2019-06-10T02:50:02.486Z,70.20
2019-06-10T02:52:32.181Z,71.50
2019-06-10T02:54:54.974Z,71.60
2019-06-10T02:57:30.526Z,71.90
2019-06-10T02:59:54.384Z,72.20
2019-06-10T03:02:28.852Z,72.90
2019-06-10T03:04:53.718Z,74.50
2019-06-10T03:07:26.750Z,73.40
2019-06-10T03:09:53.776Z,73.90
2019-06-10T03:12:23.963Z,74.20
2019-06-10T03:14:52.669Z,73.40
2019-06-10T03:17:24.782Z,72.80
2019-06-10T03:19:53.565Z,73.90
2019-06-10T03:22:22.972Z,73.30
2019-06-10T03:24:52.489Z,72.90
2019-06-10T03:27:23.138Z,73.40
2019-06-10T03:29:52.691Z,73.30
2019-06-10T03:32:23.617Z,73.00
2019-06-10T03:34:54.767Z,73.90
2019-06-10T03:37:23.293Z,73.00
2019-06-10T03:39:53.106Z,72.90
2019-06-10T03:42:23.709Z,74.10
2019-06-10T03:44:52.591Z,73.40
2019-06-10T03:47:23.441Z,73.00
2019-06-10T03:49:53.472Z,73.60
2019-06-10T03:52:23.513Z,72.80
2019-06-10T03:54:52.479Z,73.70
2019-06-10T03:57:23.764Z,73.30
2019-06-10T03:59:52.774Z,73.70
2019-06-10T04:02:23.613Z,73.30
2019-06-10T04:04:52.402Z,74.10
2019-06-10T04:07:25.621Z,73.60
2019-06-10T04:09:52.632Z,73.60
2019-06-10T04:12:22.183Z,73.50
2019-06-10T04:14:52.183Z,73.60
2019-06-10T04:17:22.680Z,73.50
2019-06-10T04:20:07.114Z,73.60
2019-06-10T04:22:23.539Z,73.80
2019-06-10T04:24:52.062Z,73.70
2019-06-10T04:27:22.711Z,73.50
2019-06-10T04:29:52.401Z,73.40
2019-06-10T04:32:23.126Z,73.30
2019-06-10T04:34:52.977Z,73.30
2019-06-10T04:37:23.375Z,73.30
2019-06-10T04:39:53.029Z,73.40
2019-06-10T04:42:23.217Z,73.40
2019-06-10T04:44:52.524Z,74.10
2019-06-10T04:47:23.427Z,73.80
2019-06-10T04:49:52.260Z,73.50
2019-06-10T04:52:23.218Z,73.10
2019-06-10T04:54:52.720Z,73.60
2019-06-10T04:57:23.406Z,73.60
2019-06-10T04:59:52.998Z,74.00
2019-06-10T05:02:23.767Z,74.10
2019-06-10T05:04:53.193Z,74.20
2019-06-10T05:07:24.049Z,74.50
2019-06-10T05:09:52.496Z,74.40
2019-06-10T05:12:23.336Z,74.60
2019-06-10T05:14:52.691Z,74.60
2019-06-10T05:17:22.207Z,74.40
2019-06-10T05:19:53.082Z,74.60
2019-06-10T05:22:23.642Z,74.60
2019-06-10T05:24:52.750Z,74.50
2019-06-10T05:27:22.786Z,74.80
2019-06-10T05:29:52.702Z,74.50
2019-06-10T05:32:23.214Z,74.40
2019-06-10T05:34:52.787Z,74.30
2019-06-10T05:37:23.724Z,74.10
2019-06-10T05:39:52.695Z,74.50
2019-06-10T05:42:24.446Z,74.30
2019-06-10T05:44:52.473Z,74.70
2019-06-10T05:47:25.023Z,74.00
2019-06-10T05:49:52.898Z,73.60
2019-06-10T05:52:23.404Z,73.20
2019-06-10T05:54:52.162Z,73.80
2019-06-10T05:57:23.909Z,73.30
2019-06-10T05:59:52.278Z,73.30
2019-06-10T06:02:22.268Z,73.20
2019-06-10T06:04:53.070Z,73.20
2019-06-10T06:07:22.275Z,73.40
2019-06-10T06:09:53.168Z,73.30
2019-06-10T06:12:22.654Z,73.40
2019-06-10T06:14:52.786Z,73.40
2019-06-10T06:17:23.616Z,73.60
2019-06-10T06:19:53.408Z,73.70
2019-06-10T06:22:22.121Z,74.40
2019-06-10T06:24:52.241Z,74.10
2019-06-10T06:27:22.559Z,74.40
2019-06-10T06:29:52.498Z,74.60
2019-06-10T06:32:23.423Z,74.60
2019-06-10T06:34:52.649Z,74.60
2019-06-10T06:37:23.124Z,74.80
2019-06-10T06:39:52.321Z,74.90
2019-06-10T06:42:22.869Z,74.90
2019-06-10T06:44:52.527Z,75.40
2019-06-10T06:47:22.631Z,75.90
2019-06-10T06:49:53.084Z,75.90
2019-06-10T06:52:38.903Z,75.60
2019-06-10T06:54:53.014Z,75.40
2019-06-10T06:57:22.380Z,75.60
2019-06-10T06:59:52.617Z,75.40
2019-06-10T07:02:22.703Z,75.50
2019-06-10T07:04:52.561Z,75.50
2019-06-10T07:07:22.251Z,75.30
2019-06-10T07:09:52.819Z,75.80
2019-06-10T07:12:24.062Z,75.40
2019-06-10T07:14:53.113Z,75.50
2019-06-10T07:17:22.775Z,76.00
2019-06-10T07:19:52.911Z,75.70
2019-06-10T07:22:23.298Z,75.90
2019-06-10T07:24:52.807Z,75.80
2019-06-10T07:27:22.611Z,75.50
2019-06-10T07:29:53.034Z,75.80
2019-06-10T07:32:22.697Z,75.60
2019-06-10T07:34:52.472Z,75.70
2019-06-10T07:37:23.231Z,76.40
2019-06-10T07:39:52.306Z,75.70
2019-06-10T07:42:22.709Z,75.50
2019-06-10T07:44:53.259Z,75.80
2019-06-10T07:47:23.154Z,76.10
2019-06-10T07:49:52.273Z,76.20
2019-06-10T07:52:23.307Z,76.20
2019-06-10T07:54:52.966Z,76.60
2019-06-10T07:57:22.614Z,76.70
2019-06-10T07:59:52.314Z,76.30
2019-06-10T08:02:23.182Z,75.90
2019-06-10T08:04:53.877Z,76.30
2019-06-10T08:07:22.516Z,75.50
2019-06-10T08:09:53.289Z,74.60
2019-06-10T08:12:23.244Z,74.20
2019-06-10T08:14:53.230Z,74.80
2019-06-10T08:17:22.429Z,75.40
2019-06-10T08:19:54.110Z,75.50
2019-06-10T08:22:31.277Z,75.60
2019-06-10T08:24:52.383Z,74.00
2019-06-10T08:27:22.719Z,73.40
2019-06-10T08:30:07.785Z,73.90
2019-06-10T08:32:21.311Z,73.90
2019-06-10T08:34:49.759Z,74.30
2019-06-10T08:37:18.235Z,73.50
2019-06-10T08:39:47.713Z,72.20
2019-06-10T08:42:16.311Z,70.80
2019-06-10T08:44:47.258Z,69.70
2019-06-10T08:47:14.942Z,68.80
2019-06-10T08:49:45.859Z,67.30
2019-06-10T08:52:13.523Z,67.50
2019-06-10T08:54:47.208Z,64.40
2019-06-10T08:57:12.717Z,62.90
2019-06-10T08:59:45.597Z,64.00
2019-06-10T09:02:12.327Z,62.10
2019-06-10T09:04:43.667Z,60.30
2019-06-10T09:07:12.589Z,60.50
2019-06-10T09:09:43.780Z,59.00
2019-06-10T09:12:28.340Z,58.80
2019-06-10T09:14:43.998Z,57.40
2019-06-10T09:17:12.551Z,57.90
2019-06-10T09:19:44.550Z,56.40
2019-06-10T09:22:12.603Z,57.10
2019-06-10T09:24:45.136Z,56.90
2019-06-10T09:27:13.400Z,55.90
2019-06-10T09:29:45.290Z,57.00
2019-06-10T09:32:12.484Z,55.60
2019-06-10T09:34:43.067Z,54.80
2019-06-10T09:37:12.386Z,52.60
2019-06-10T09:39:44.223Z,53.30
2019-06-10T09:42:14.453Z,52.80
2019-06-10T09:44:45.157Z,52.50
2019-06-10T09:47:13.642Z,51.40
2019-06-10T09:49:46.095Z,51.50
2019-06-10T09:52:13.668Z,50.80
2019-06-10T09:54:47.019Z,49.40
2019-06-10T09:57:12.734Z,49.70
2019-06-10T09:59:44.486Z,50.20
2019-06-10T10:02:12.561Z,49.90
2019-06-10T10:04:46.656Z,48.60
2019-06-10T10:07:12.280Z,47.60
2019-06-10T10:09:46.308Z,47.40
2019-06-10T10:12:12.281Z,47.70
2019-06-10T10:14:44.447Z,46.80
2019-06-10T10:17:12.852Z,48.20
2019-06-10T10:19:45.349Z,48.60
2019-06-10T10:22:13.940Z,48.20
2019-06-10T10:24:42.946Z,47.60
2019-06-10T10:27:13.498Z,46.90
2019-06-10T10:29:44.578Z,47.50
2019-06-10T10:32:13.182Z,46.80
2019-06-10T10:34:43.768Z,45.40
2019-06-10T10:37:12.365Z,45.30
2019-06-10T10:39:41.012Z,45.70
2019-06-10T10:42:09.438Z,45.00
2019-06-10T10:44:37.881Z,45.20
2019-06-10T10:47:06.291Z,45.40
2019-06-10T10:49:34.790Z,45.30
2019-06-10T10:52:03.276Z,45.70
2019-06-10T10:54:35.951Z,45.10
2019-06-10T10:57:02.597Z,44.60
2019-06-10T10:59:33.229Z,44.20
2019-06-10T11:02:02.415Z,44.40
2019-06-10T11:04:32.870Z,44.40
2019-06-10T11:07:01.513Z,44.10
2019-06-10T11:09:33.074Z,44.40
2019-06-10T11:12:03.371Z,44.10
2019-06-10T11:14:33.541Z,43.70
2019-06-10T11:17:03.002Z,44.00
2019-06-10T11:19:32.401Z,43.30
2019-06-10T11:22:02.844Z,42.80
2019-06-10T11:24:37.869Z,43.20
2019-06-10T11:27:03.130Z,42.50
2019-06-10T11:29:32.915Z,42.30
2019-06-10T11:32:02.502Z,42.30
2019-06-10T11:34:33.223Z,41.10
2019-06-10T11:37:02.409Z,41.00
2019-06-10T11:39:33.037Z,41.60
2019-06-10T11:42:23.192Z,41.30
2019-06-10T11:44:51.355Z,41.30
2019-06-10T11:47:22.831Z,40.70
2019-06-10T11:49:53.465Z,41.10
2019-06-10T11:52:22.922Z,40.20
2019-06-10T11:55:03.515Z,39.70
2019-06-10T11:57:22.952Z,39.20
2019-06-10T11:59:53.236Z,39.80
2019-06-10T12:02:22.821Z,39.90
2019-06-10T12:04:53.658Z,39.40
2019-06-10T12:07:22.378Z,38.80
2019-06-10T12:09:54.000Z,37.80
2019-06-10T12:12:22.068Z,39.00
2019-06-10T12:14:54.630Z,37.80
2019-06-10T12:17:35.225Z,37.50
2019-06-10T12:19:55.357Z,37.40
2019-06-10T12:22:22.679Z,37.30
2019-06-10T12:25:06.223Z,37.00
2019-06-10T12:27:22.077Z,36.40
2019-06-10T12:29:53.021Z,37.00
2019-06-10T12:32:22.522Z,36.80
2019-06-10T12:34:51.335Z,36.00
2019-06-10T12:37:19.998Z,35.70
2019-06-10T12:39:48.403Z,34.10
2019-06-10T12:42:16.846Z,34.30
2019-06-10T12:44:45.262Z,34.80
2019-06-10T12:47:13.691Z,34.80
2019-06-10T12:49:42.775Z,34.50
2019-06-10T12:52:12.496Z,34.90
2019-06-10T12:54:42.292Z,34.60
2019-06-10T12:57:12.371Z,34.20
2019-06-10T12:59:42.879Z,33.90
2019-06-10T13:02:22.315Z,34.20
2019-06-10T13:04:43.661Z,34.60
2019-06-10T13:07:13.125Z,33.90
2019-06-10T13:09:43.901Z,33.30
2019-06-10T13:12:12.959Z,33.40
2019-06-10T13:14:43.560Z,33.20
2019-06-10T13:17:13.016Z,33.70
2019-06-10T13:19:43.199Z,34.10
2019-06-10T13:22:12.534Z,34.10
2019-06-10T13:24:42.366Z,34.40
2019-06-10T13:27:10.998Z,33.90
2019-06-10T13:29:39.419Z,34.30
2019-06-10T13:32:08.170Z,34.50
2019-06-10T13:34:36.762Z,34.60
2019-06-10T13:37:06.842Z,34.60
2019-06-10T13:39:35.397Z,35.20
2019-06-10T13:42:06.868Z,35.00
2019-06-10T13:44:34.041Z,34.50
2019-06-10T13:47:07.113Z,34.40
2019-06-10T13:49:33.079Z,34.20
2019-06-10T13:52:05.726Z,34.70
2019-06-10T13:54:31.799Z,35.10
2019-06-10T13:57:01.482Z,35.40
2019-06-10T13:59:30.427Z,36.00
2019-06-10T14:01:59.817Z,36.70
2019-06-10T14:04:29.070Z,37.50
2019-06-10T14:06:57.534Z,38.40
2019-06-10T14:09:28.483Z,38.70
2019-06-10T14:11:56.902Z,39.30
2019-06-10T14:14:25.323Z,39.80
2019-06-10T14:16:54.157Z,39.90
2019-06-10T14:19:23.335Z,40.20
2019-06-10T14:21:51.758Z,39.80
2019-06-10T14:24:22.545Z,40.00
2019-06-10T14:26:52.965Z,39.90
2019-06-10T14:29:20.546Z,40.20
2019-06-10T14:31:49.018Z,40.40
2019-06-10T14:34:18.687Z,40.60
2019-06-10T14:36:47.465Z,41.00
2019-06-10T14:39:16.129Z,41.10
2019-06-10T14:41:44.840Z,41.40
2019-06-10T14:44:16.138Z,41.50
2019-06-10T14:46:43.412Z,42.10
2019-06-10T14:49:14.080Z,42.70
2019-06-10T14:51:43.172Z,43.20
2019-06-10T14:54:14.637Z,43.60
2019-06-10T14:56:52.882Z,44.20
2019-06-10T14:59:14.431Z,45.20
2019-06-10T15:01:42.659Z,45.30
2019-06-10T15:04:14.637Z,45.30
2019-06-10T15:06:43.119Z,46.30
2019-06-10T15:09:11.528Z,46.40
2019-06-10T15:11:40.050Z,46.80
2019-06-10T15:14:09.820Z,47.40
2019-06-10T15:16:39.307Z,48.00
2019-06-10T15:19:14.782Z,48.50
2019-06-10T15:21:37.892Z,49.50
2019-06-10T15:24:07.782Z,50.40
2019-06-10T15:26:36.372Z,51.60
2019-06-10T15:29:05.383Z,53.30
2019-06-10T15:31:33.818Z,54.90
2019-06-10T15:34:02.895Z,56.60
2019-06-10T15:36:32.686Z,57.30
2019-06-10T15:39:01.328Z,59.00
2019-06-10T15:41:32.181Z,60.50
2019-06-10T15:44:02.409Z,61.30
2019-06-10T15:46:32.221Z,62.10
2019-06-10T15:49:02.382Z,62.90
2019-06-10T15:51:30.316Z,64.10
2019-06-10T15:53:58.738Z,65.10
2019-06-10T15:56:38.706Z,67.00
2019-06-10T15:58:57.305Z,68.00
2019-06-10T16:01:27.466Z,68.30
2019-06-10T16:03:56.006Z,69.50
2019-06-10T16:06:24.497Z,69.70
2019-06-10T16:08:52.926Z,70.80
2019-06-10T16:11:26.357Z,71.10
2019-06-10T16:13:53.360Z,72.40
2019-06-10T16:16:22.853Z,72.70
2019-06-10T16:18:52.809Z,73.10
2019-06-10T16:21:22.001Z,73.70
2019-06-10T16:23:53.152Z,73.70
2019-06-10T16:26:23.476Z,74.30
2019-06-10T16:28:52.246Z,74.50
2019-06-10T16:31:23.735Z,74.90
2019-06-10T16:33:52.775Z,75.30
2019-06-10T16:36:23.694Z,76.10
2019-06-10T16:38:52.840Z,75.50
2019-06-10T16:41:24.721Z,75.90
2019-06-10T16:43:52.273Z,76.20
2019-06-10T16:46:20.756Z,76.40
2019-06-10T16:48:49.192Z,76.40
2019-06-10T16:51:17.673Z,76.40
2019-06-10T16:53:46.099Z,76.90
2019-06-10T16:56:15.286Z,77.00
2019-06-10T16:58:43.712Z,76.80
2019-06-10T17:01:12.553Z,76.80
2019-06-10T17:03:42.474Z,77.10
2019-06-10T17:06:12.958Z,77.70
2019-06-10T17:08:42.644Z,78.20
2019-06-10T17:11:12.409Z,77.80
2019-06-10T17:13:42.275Z,78.20
2019-06-10T17:16:12.714Z,77.80
2019-06-10T17:18:41.189Z,78.40
2019-06-10T17:21:09.601Z,77.90
2019-06-10T17:23:38.038Z,77.80
2019-06-10T17:26:06.447Z,78.20
2019-06-10T17:28:36.910Z,78.40
2019-06-10T17:31:05.083Z,77.90
2019-06-10T17:33:35.837Z,77.80
2019-06-10T17:36:03.758Z,77.80
2019-06-10T17:38:32.384Z,77.50
2019-06-10T17:41:03.030Z,77.80
2019-06-10T17:43:34.064Z,77.10
2019-06-10T17:46:03.116Z,77.40
2019-06-10T17:48:33.450Z,77.50
2019-06-10T17:51:01.501Z,77.50
2019-06-10T17:53:30.862Z,77.40
2019-06-10T17:56:00.067Z,77.50
2019-06-10T17:58:40.572Z,77.20
2019-06-10T18:00:58.629Z,77.30
2019-06-10T18:03:27.917Z,77.30
2019-06-10T18:05:57.207Z,77.50
2019-06-10T18:08:26.002Z,77.70
2019-06-10T18:10:54.545Z,77.80
2019-06-10T18:13:24.640Z,77.80
2019-06-10T18:15:53.585Z,77.50
2019-06-10T18:18:42.566Z,77.40
2019-06-10T18:21:12.661Z,78.10
2019-06-10T18:23:43.548Z,77.90
2019-06-10T18:26:12.419Z,78.10
2019-06-10T18:28:59.917Z,78.40
2019-06-10T18:31:11.124Z,78.40
2019-06-10T18:33:39.610Z,78.60
2019-06-10T18:36:08.041Z,78.90
2019-06-10T18:38:37.338Z,78.80
2019-06-10T18:41:05.971Z,78.60
2019-06-10T18:43:35.708Z,78.70
2019-06-10T18:46:04.671Z,78.20
2019-06-10T18:48:36.082Z,78.40
2019-06-10T18:51:03.260Z,78.60
2019-06-10T18:53:33.496Z,78.40
2019-06-10T18:56:01.825Z,78.40
2019-06-10T18:58:32.991Z,78.50
2019-06-10T19:01:05.174Z,78.60
2019-06-10T19:03:32.874Z,78.70
2019-06-10T19:06:00.742Z,78.80
2019-06-10T19:08:29.166Z,78.80
2019-06-10T19:10:57.601Z,78.80
2019-06-10T19:13:26.010Z,79.10
2019-06-10T19:15:54.447Z,79.60
2019-06-10T19:18:23.479Z,79.10
2019-06-10T19:20:53.331Z,79.00
2019-06-10T19:23:22.921Z,79.10
2019-06-10T19:25:52.430Z,79.20
2019-06-10T19:28:22.883Z,79.30
2019-06-10T19:30:53.332Z,79.30
2019-06-10T19:33:23.566Z,79.40
2019-06-10T19:35:53.020Z,79.40
2019-06-10T19:38:23.113Z,79.60
2019-06-10T19:40:52.281Z,79.70
2019-06-10T19:43:20.944Z,79.70
2019-06-10T19:45:49.494Z,79.70
2019-06-10T19:48:17.927Z,79.70
2019-06-10T19:50:50.257Z,79.80
2019-06-10T19:53:16.783Z,79.90
2019-06-10T19:55:46.103Z,79.90
2019-06-10T19:58:14.709Z,79.70
2019-06-10T20:00:50.421Z,79.90
2019-06-10T20:03:13.424Z,80.00
2019-06-10T20:05:44.946Z,80.00
2019-06-10T20:08:12.189Z,80.10
2019-06-10T20:10:40.684Z,80.00
2019-06-10T20:13:09.174Z,80.60
2019-06-10T20:15:37.603Z,80.00
2019-06-10T20:18:06.031Z,80.10
2019-06-10T20:20:34.436Z,80.20
2019-06-10T20:23:03.269Z,80.20
2019-06-10T20:25:32.901Z,80.20
2019-06-10T20:28:02.894Z,79.70
2019-06-10T20:30:33.290Z,79.80
2019-06-10T20:33:03.367Z,79.80
2019-06-10T20:35:32.755Z,79.90
2019-06-10T20:38:04.635Z,80.00
2019-06-10T20:40:32.122Z,80.00
2019-06-10T20:43:03.169Z,80.10
2019-06-10T20:45:33.240Z,80.20
2019-06-10T20:48:02.772Z,80.30
2019-06-10T20:50:32.310Z,80.50
2019-06-10T20:53:11.975Z,80.30
2019-06-10T20:55:40.428Z,80.60
2019-06-10T20:58:06.172Z,80.70
2019-06-10T21:00:37.035Z,80.70
2019-06-10T21:03:06.456Z,80.70
2019-06-10T21:05:35.572Z,80.70
2019-06-10T21:08:05.131Z,80.70
2019-06-10T21:10:37.843Z,80.70
2019-06-10T21:13:07.211Z,80.80
2019-06-10T21:15:39.738Z,80.70
2019-06-10T21:18:08.935Z,80.70
2019-06-10T21:20:37.367Z,80.70
2019-06-10T21:23:05.867Z,80.70
2019-06-10T21:25:34.373Z,80.70
2019-06-10T21:28:03.482Z,80.60
2019-06-10T21:30:41.362Z,80.80
2019-06-10T21:33:03.713Z,80.80
2019-06-10T21:35:34.979Z,80.80
2019-06-10T21:38:03.001Z,80.70
2019-06-10T21:40:33.053Z,79.90
2019-06-10T21:43:02.886Z,80.60
2019-06-10T21:45:32.617Z,80.80
2019-06-10T21:48:02.230Z,81.00
2019-06-10T21:50:33.456Z,81.00
2019-06-10T21:53:02.976Z,81.10
2019-06-10T21:55:33.112Z,81.10
2019-06-10T21:58:03.757Z,81.20
2019-06-10T22:00:34.268Z,81.30
2019-06-10T22:03:02.275Z,81.50
2019-06-10T22:05:33.035Z,80.70
2019-06-10T22:08:02.991Z,81.80
2019-06-10T22:10:33.404Z,82.10
2019-06-10T22:13:03.227Z,82.40
2019-06-10T22:15:33.338Z,82.90
2019-06-10T22:18:02.223Z,83.10
2019-06-10T22:20:32.495Z,83.10
2019-06-10T22:23:02.587Z,83.20
2019-06-10T22:25:32.885Z,83.20
2019-06-10T22:28:02.787Z,83.30
2019-06-10T22:30:32.153Z,83.20
2019-06-10T22:33:03.056Z,83.10
2019-06-10T22:35:30.967Z,83.00
2019-06-10T22:37:59.407Z,82.90
2019-06-10T22:40:27.819Z,82.90
2019-06-10T22:42:56.787Z,82.80
2019-06-10T22:45:25.341Z,82.80
2019-06-10T22:47:55.286Z,82.60
2019-06-10T22:50:23.904Z,82.60
2019-06-10T22:52:54.592Z,82.60
2019-06-10T22:55:22.564Z,82.40
2019-06-10T22:57:54.717Z,82.30
2019-06-10T23:00:22.260Z,82.20
2019-06-10T23:02:53.322Z,82.10
2019-06-10T23:05:23.250Z,82.20
2019-06-10T23:07:53.250Z,82.20
2019-06-10T23:10:22.842Z,82.30
2019-06-10T23:12:54.965Z,82.20
2019-06-10T23:15:23.561Z,82.40
2019-06-10T23:17:55.276Z,82.30
2019-06-10T23:20:22.011Z,82.30
2019-06-10T23:22:52.832Z,82.30
2019-06-10T23:25:22.060Z,82.20
2019-06-10T23:27:53.838Z,82.50
2019-06-10T23:30:22.384Z,82.30
2019-06-10T23:32:54.212Z,82.20
2019-06-10T23:35:23.122Z,82.20
2019-06-10T23:37:55.032Z,82.20
2019-06-10T23:40:23.312Z,82.20
2019-06-10T23:42:52.751Z,82.10
2019-06-10T23:45:22.382Z,82.00
2019-06-10T23:47:52.909Z,81.90
2019-06-10T23:50:22.566Z,82.00
2019-06-10T23:52:54.090Z,81.90
2019-06-10T23:55:22.838Z,81.90
2019-06-10T23:57:53.004Z,81.70
